createdAt,value
2017-11-30T00:00:56.861Z,8.48
2017-11-30T00:03:25.180Z,7.82
2017-11-30T00:05:53.497Z,7.53
2017-11-30T00:08:21.780Z,8.65
2017-11-30T00:10:50.106Z,8.93
2017-11-30T00:13:18.400Z,9.38
2017-11-30T00:15:46.733Z,9.63
2017-11-30T00:18:15.024Z,9.00
2017-11-30T00:20:43.357Z,8.07
2017-11-30T00:23:11.676Z,9.30
2017-11-30T00:25:40.754Z,9.20
2017-11-30T00:28:09.160Z,10.75
2017-11-30T00:30:37.488Z,8.67
2017-11-30T00:33:05.825Z,9.55
2017-11-30T00:35:34.141Z,9.80
2017-11-30T00:38:02.464Z,9.97
2017-11-30T00:40:30.753Z,9.02
2017-11-30T00:43:11.094Z,11.18
2017-11-30T00:45:40.156Z,10.25
2017-11-30T00:48:08.502Z,10.00
2017-11-30T00:50:37.552Z,10.75
2017-11-30T00:53:05.877Z,11.35
2017-11-30T00:55:34.173Z,10.50
2017-11-30T00:58:03.304Z,9.68
2017-11-30T01:00:31.600Z,11.82
2017-11-30T01:02:59.903Z,10.07
2017-11-30T01:05:29.228Z,12.02
2017-11-30T01:07:57.565Z,11.02
2017-11-30T01:10:27.892Z,10.45
2017-11-30T01:12:56.179Z,8.05
2017-11-30T01:15:24.520Z,9.80
2017-11-30T01:17:52.813Z,10.57
2017-11-30T01:20:21.103Z,12.00
2017-11-30T01:22:49.440Z,11.70
2017-11-30T01:25:17.828Z,11.43
2017-11-30T01:27:46.157Z,11.60
2017-11-30T01:30:14.465Z,12.15
2017-11-30T01:32:42.782Z,12.10
2017-11-30T01:35:11.085Z,11.70
2017-11-30T01:37:39.413Z,12.73
2017-11-30T01:40:07.704Z,11.48
2017-11-30T01:42:36.036Z,12.50
2017-11-30T01:45:04.328Z,11.07
2017-11-30T01:47:34.152Z,12.20
2017-11-30T01:50:02.453Z,11.65
2017-11-30T01:52:30.773Z,10.25
2017-11-30T01:54:59.851Z,12.30
2017-11-30T01:57:28.251Z,10.60
2017-11-30T01:59:56.545Z,10.47
2017-11-30T02:02:25.620Z,9.67
2017-11-30T02:04:53.917Z,10.60
2017-11-30T02:07:22.256Z,10.13
2017-11-30T02:09:50.556Z,11.25
2017-11-30T02:12:18.871Z,10.50
2017-11-30T02:14:47.171Z,10.00
2017-11-30T02:17:15.499Z,11.48
2017-11-30T02:19:44.556Z,10.57
2017-11-30T02:22:12.896Z,10.73
2017-11-30T02:24:41.956Z,11.33
2017-11-30T02:27:10.252Z,11.18
2017-11-30T02:29:38.612Z,10.23
2017-11-30T02:32:06.912Z,9.10
2017-11-30T02:34:35.204Z,10.73
2017-11-30T02:37:03.540Z,10.43
2017-11-30T02:39:31.883Z,11.90
2017-11-30T02:42:00.180Z,10.02
2017-11-30T02:44:29.437Z,10.20
2017-11-30T02:46:58.516Z,9.57
2017-11-30T02:49:26.809Z,11.57
2017-11-30T02:51:55.124Z,11.00
2017-11-30T02:54:24.184Z,10.53
2017-11-30T02:56:53.732Z,9.25
2017-11-30T02:59:22.029Z,9.67
2017-11-30T03:01:50.339Z,10.67
2017-11-30T03:04:18.642Z,10.83
2017-11-30T03:06:46.968Z,11.13
2017-11-30T03:09:15.267Z,11.60
2017-11-30T03:11:43.605Z,11.35
2017-11-30T03:14:11.946Z,11.07
2017-11-30T03:16:40.250Z,11.17
2017-11-30T03:19:08.532Z,12.27
2017-11-30T03:21:38.344Z,11.77
2017-11-30T03:24:06.639Z,11.43
2017-11-30T03:26:34.984Z,11.57
2017-11-30T03:29:03.310Z,11.80
2017-11-30T03:31:31.629Z,11.15
2017-11-30T03:33:59.945Z,9.30
2017-11-30T03:36:29.001Z,11.70
2017-11-30T03:38:57.359Z,12.50
2017-11-30T03:41:26.100Z,10.87
2017-11-30T03:43:54.462Z,9.20
2017-11-30T03:46:22.772Z,12.33
2017-11-30T03:48:51.055Z,12.40
2017-11-30T03:51:19.475Z,11.95
2017-11-30T03:53:47.769Z,12.13
2017-11-30T03:56:16.072Z,11.50
2017-11-30T03:58:45.144Z,12.40
2017-11-30T04:01:21.073Z,9.95
2017-11-30T04:03:49.360Z,9.90
2017-11-30T04:06:17.680Z,11.65
2017-11-30T04:08:46.082Z,9.68
2017-11-30T04:11:14.424Z,11.20
2017-11-30T04:13:42.781Z,11.70
2017-11-30T04:16:11.092Z,11.10
2017-11-30T04:18:39.392Z,11.13
2017-11-30T04:21:07.741Z,10.40
2017-11-30T04:23:36.036Z,10.50
2017-11-30T04:26:04.375Z,11.77
2017-11-30T04:28:32.769Z,12.98
2017-11-30T04:31:01.117Z,12.00
2017-11-30T04:33:30.171Z,11.10
2017-11-30T04:35:58.521Z,10.75
2017-11-30T04:38:27.578Z,11.37
2017-11-30T04:40:55.868Z,11.93
2017-11-30T04:43:24.214Z,11.00
2017-11-30T04:45:53.268Z,12.07
2017-11-30T04:48:21.564Z,11.77
2017-11-30T04:50:49.905Z,11.20
2017-11-30T04:53:19.009Z,10.77
2017-11-30T04:55:48.104Z,10.80
2017-11-30T04:58:17.193Z,9.95
2017-11-30T05:00:45.481Z,11.13
2017-11-30T05:03:13.795Z,10.38
2017-11-30T05:05:42.898Z,10.80
2017-11-30T05:08:11.951Z,13.47
2017-11-30T05:10:40.252Z,11.20
2017-11-30T05:13:08.606Z,12.43
2017-11-30T05:15:36.895Z,11.67
2017-11-30T05:18:05.187Z,11.10
2017-11-30T05:20:33.641Z,12.43
2017-11-30T05:23:01.928Z,10.60
2017-11-30T05:25:30.216Z,12.23
2017-11-30T05:27:58.552Z,12.33
2017-11-30T05:30:26.851Z,11.23
2017-11-30T05:32:55.179Z,10.80
2017-11-30T05:35:23.468Z,11.40
2017-11-30T05:37:51.768Z,12.40
2017-11-30T05:40:20.166Z,11.00
2017-11-30T05:42:48.451Z,11.13
2017-11-30T05:45:16.768Z,10.50
2017-11-30T05:47:45.066Z,11.10
2017-11-30T05:50:13.392Z,11.55
2017-11-30T05:52:41.681Z,11.03
2017-11-30T05:55:10.014Z,11.43
2017-11-30T05:57:39.068Z,11.13
2017-11-30T06:00:07.399Z,11.10
2017-11-30T06:02:35.684Z,11.23
2017-11-30T06:05:04.008Z,11.53
2017-11-30T06:07:32.305Z,12.13
2017-11-30T06:10:00.633Z,12.40
2017-11-30T06:12:28.945Z,10.63
2017-11-30T06:14:58.042Z,12.93
2017-11-30T06:17:26.329Z,12.33
2017-11-30T06:19:56.168Z,13.50
2017-11-30T06:22:24.553Z,11.60
2017-11-30T06:24:52.888Z,11.87
2017-11-30T06:27:21.194Z,10.75
2017-11-30T06:29:49.557Z,11.80
2017-11-30T06:32:17.855Z,11.38
2017-11-30T06:34:46.149Z,13.32
2017-11-30T06:37:14.497Z,13.85
2017-11-30T06:39:42.830Z,11.60
2017-11-30T06:42:11.139Z,10.97
2017-11-30T06:44:39.649Z,11.53
2017-11-30T06:47:07.956Z,12.90
2017-11-30T06:49:36.306Z,12.30
2017-11-30T06:52:04.588Z,12.37
2017-11-30T06:54:32.945Z,11.27
2017-11-30T06:57:02.001Z,10.23
2017-11-30T06:59:30.344Z,11.67
2017-11-30T07:01:59.404Z,11.00
2017-11-30T07:04:27.749Z,12.05
2017-11-30T07:06:56.113Z,11.17
2017-11-30T07:09:24.419Z,11.43
2017-11-30T07:11:53.484Z,11.63
2017-11-30T07:14:21.793Z,11.60
2017-11-30T07:16:50.083Z,12.63
2017-11-30T07:19:18.428Z,12.13
2017-11-30T07:21:46.711Z,13.47
2017-11-30T07:24:15.058Z,12.00
2017-11-30T07:26:43.348Z,11.90
2017-11-30T07:29:11.704Z,13.20
2017-11-30T07:31:39.996Z,12.47
2017-11-30T07:34:08.284Z,14.10
2017-11-30T07:36:36.636Z,12.50
2017-11-30T07:39:04.929Z,13.10
2017-11-30T07:41:33.228Z,12.00
2017-11-30T07:44:01.585Z,11.60
2017-11-30T07:46:30.716Z,11.37
2017-11-30T07:48:59.004Z,12.00
2017-11-30T07:51:27.340Z,12.03
2017-11-30T07:53:55.631Z,12.50
2017-11-30T07:56:24.004Z,11.68
2017-11-30T07:58:52.301Z,11.50
2017-11-30T08:01:20.597Z,10.73
2017-11-30T08:03:48.911Z,11.97
2017-11-30T08:06:17.201Z,12.23
2017-11-30T08:08:45.520Z,11.00
2017-11-30T08:11:13.807Z,12.43
2017-11-30T08:13:44.109Z,11.57
2017-11-30T08:16:12.392Z,12.00
2017-11-30T08:18:40.708Z,12.20
2017-11-30T08:21:09.764Z,12.97
2017-11-30T08:23:38.181Z,12.30
2017-11-30T08:26:06.516Z,12.53
2017-11-30T08:28:34.803Z,13.27
2017-11-30T08:31:03.104Z,15.07
2017-11-30T08:33:31.440Z,15.67
2017-11-30T08:35:59.771Z,14.00
2017-11-30T08:38:28.059Z,17.50
2017-11-30T08:40:56.353Z,17.10
2017-11-30T08:43:24.737Z,15.30
2017-11-30T08:45:53.057Z,17.57
2017-11-30T08:48:21.764Z,17.90
2017-11-30T08:50:50.056Z,15.63
2017-11-30T08:53:18.350Z,15.63
2017-11-30T08:55:46.673Z,12.87
2017-11-30T08:58:14.989Z,12.70
2017-11-30T09:00:43.277Z,13.23
2017-11-30T09:03:11.624Z,11.70
2017-11-30T09:05:39.912Z,13.03
2017-11-30T09:08:08.215Z,12.90
2017-11-30T09:10:36.562Z,13.77
2017-11-30T09:13:04.860Z,14.23
2017-11-30T09:15:33.194Z,18.97
2017-11-30T09:18:01.497Z,20.03
2017-11-30T09:20:29.836Z,16.63
2017-11-30T09:22:58.177Z,14.50
2017-11-30T09:25:27.313Z,13.60
2017-11-30T09:27:55.596Z,15.03
2017-11-30T09:30:23.888Z,13.37
2017-11-30T09:32:52.325Z,13.20
2017-11-30T09:35:20.661Z,15.03
2017-11-30T09:37:48.956Z,13.53
2017-11-30T09:40:17.289Z,14.80
2017-11-30T09:42:45.626Z,13.87
2017-11-30T09:45:13.939Z,14.43
2017-11-30T09:47:42.293Z,13.87
2017-11-30T09:50:11.373Z,14.37
2017-11-30T09:52:39.688Z,14.63
2017-11-30T09:55:08.741Z,15.30
2017-11-30T09:57:37.077Z,18.00
2017-11-30T10:00:06.369Z,19.67
2017-11-30T10:02:36.172Z,20.53
2017-11-30T10:05:04.451Z,21.80
2017-11-30T10:07:32.788Z,18.10
2017-11-30T10:10:01.894Z,16.70
2017-11-30T10:12:30.953Z,15.10
2017-11-30T10:14:59.231Z,16.50
2017-11-30T10:17:27.567Z,14.27
2017-11-30T10:19:55.856Z,16.83
2017-11-30T10:22:24.242Z,18.30
2017-11-30T10:24:52.526Z,18.73
2017-11-30T10:27:20.843Z,18.27
2017-11-30T10:29:49.429Z,16.40
2017-11-30T10:32:17.716Z,18.80
2017-11-30T10:34:46.772Z,16.60
2017-11-30T10:37:15.103Z,16.90
2017-11-30T10:39:43.404Z,17.30
2017-11-30T10:42:11.694Z,16.17
2017-11-30T10:44:41.539Z,15.80
2017-11-30T10:47:09.824Z,15.93
2017-11-30T10:49:38.947Z,15.33
2017-11-30T10:52:07.232Z,14.40
2017-11-30T10:54:35.522Z,18.07
2017-11-30T10:57:03.866Z,15.50
2017-11-30T10:59:32.152Z,16.27
2017-11-30T11:02:00.487Z,15.63
2017-11-30T11:04:28.785Z,16.03
2017-11-30T11:06:57.109Z,13.93
2017-11-30T11:09:25.452Z,15.17
2017-11-30T11:11:54.503Z,14.70
2017-11-30T11:14:22.816Z,14.33
2017-11-30T11:16:51.218Z,14.67
2017-11-30T11:19:19.509Z,13.80
2017-11-30T11:21:47.823Z,15.10
2017-11-30T11:24:16.886Z,17.00
2017-11-30T11:26:46.620Z,17.63
2017-11-30T11:29:14.912Z,17.33
2017-11-30T11:31:43.201Z,15.83
2017-11-30T11:34:11.557Z,16.03
2017-11-30T11:36:39.881Z,16.60
2017-11-30T11:39:08.181Z,16.00
2017-11-30T11:41:37.476Z,16.77
2017-11-30T11:44:06.097Z,14.63
2017-11-30T11:46:35.157Z,14.93
2017-11-30T11:49:03.464Z,17.17
2017-11-30T11:51:31.752Z,16.00
2017-11-30T11:54:00.059Z,14.77
2017-11-30T11:56:28.348Z,14.33
2017-11-30T11:58:56.660Z,15.07
2017-11-30T12:01:25.709Z,14.20
2017-11-30T12:03:54.016Z,14.20
2017-11-30T12:06:22.304Z,14.03
2017-11-30T12:08:50.709Z,15.47
2017-11-30T12:11:18.999Z,15.80
2017-11-30T12:13:47.333Z,16.00
2017-11-30T12:16:15.616Z,15.80
2017-11-30T12:18:43.908Z,15.97
2017-11-30T12:21:12.244Z,16.17
2017-11-30T12:23:40.534Z,15.80
2017-11-30T12:26:08.876Z,16.60
2017-11-30T12:28:37.201Z,16.40
2017-11-30T12:31:05.532Z,17.70
2017-11-30T12:33:34.585Z,15.43
2017-11-30T12:36:02.867Z,16.47
2017-11-30T12:38:31.196Z,16.57
2017-11-30T12:40:59.483Z,17.13
2017-11-30T12:43:27.797Z,17.23
2017-11-30T12:45:56.847Z,16.97
2017-11-30T12:48:25.192Z,18.00
2017-11-30T12:50:54.277Z,17.33
2017-11-30T12:53:22.589Z,16.73
2017-11-30T12:55:51.697Z,19.47
2017-11-30T12:58:20.807Z,17.53
2017-11-30T13:00:49.912Z,18.80
2017-11-30T13:03:18.218Z,18.30
2017-11-30T13:05:47.279Z,18.60
2017-11-30T13:08:15.611Z,20.47
2017-11-30T13:10:44.668Z,18.00
2017-11-30T13:13:12.954Z,20.10
2017-11-30T13:15:41.294Z,19.57
2017-11-30T13:18:10.346Z,19.10
2017-11-30T13:20:38.686Z,18.00
2017-11-30T13:23:07.747Z,18.87
2017-11-30T13:25:36.074Z,18.20
2017-11-30T13:28:05.186Z,21.30
2017-11-30T13:30:34.247Z,19.57
2017-11-30T13:33:02.543Z,19.47
2017-11-30T13:35:30.878Z,20.50
2017-11-30T13:37:59.935Z,23.27
2017-11-30T13:40:28.250Z,20.13
2017-11-30T13:42:56.566Z,19.90
2017-11-30T13:45:25.624Z,19.43
2017-11-30T13:47:53.959Z,21.53
2017-11-30T13:50:23.020Z,17.27
2017-11-30T13:52:51.311Z,17.63
2017-11-30T13:55:19.644Z,18.47
2017-11-30T13:57:48.715Z,18.57
2017-11-30T14:00:17.051Z,18.87
2017-11-30T14:02:46.174Z,19.20
2017-11-30T14:05:14.466Z,18.73
2017-11-30T14:07:42.750Z,19.00
2017-11-30T14:10:11.091Z,17.83
2017-11-30T14:12:39.439Z,18.97
2017-11-30T14:15:07.730Z,17.93
2017-11-30T14:17:36.022Z,18.60
2017-11-30T14:20:04.359Z,19.70
2017-11-30T14:22:32.650Z,20.30
2017-11-30T14:25:00.982Z,17.10
2017-11-30T14:27:29.271Z,20.80
2017-11-30T14:29:57.559Z,17.70
2017-11-30T14:32:25.875Z,20.67
2017-11-30T14:34:54.167Z,19.40
2017-11-30T14:37:22.483Z,18.67
2017-11-30T14:39:50.775Z,20.47
2017-11-30T14:42:21.035Z,17.57
2017-11-30T14:44:50.172Z,17.80
2017-11-30T14:47:18.639Z,18.17
2017-11-30T14:49:47.794Z,21.40
2017-11-30T14:52:16.102Z,20.17
2017-11-30T14:54:44.394Z,21.63
2017-11-30T14:57:12.715Z,19.37
2017-11-30T14:59:41.780Z,16.77
2017-11-30T15:02:11.759Z,17.73
2017-11-30T15:04:40.314Z,18.73
2017-11-30T15:07:08.598Z,19.37
2017-11-30T15:09:37.832Z,19.03
2017-11-30T15:12:06.916Z,18.07
2017-11-30T15:14:35.315Z,18.30
2017-11-30T15:17:03.627Z,21.03
2017-11-30T15:19:32.699Z,17.43
2017-11-30T15:22:01.016Z,19.63
2017-11-30T15:24:30.092Z,20.07
2017-11-30T15:26:58.435Z,21.00
2017-11-30T15:29:27.487Z,18.63
2017-11-30T15:31:55.831Z,20.83
2017-11-30T15:34:24.168Z,20.60
2017-11-30T15:36:52.455Z,19.20
2017-11-30T15:39:20.972Z,20.87
2017-11-30T15:41:49.267Z,20.40
2017-11-30T15:44:17.567Z,23.07
2017-11-30T15:46:46.666Z,21.43
2017-11-30T15:49:15.110Z,24.70
2017-11-30T15:51:43.398Z,24.83
2017-11-30T15:54:13.643Z,24.60
2017-11-30T15:56:41.966Z,21.93
2017-11-30T15:59:10.259Z,25.30
2017-11-30T16:01:38.602Z,23.63
2017-11-30T16:04:06.904Z,24.43
2017-11-30T16:06:35.316Z,26.03
2017-11-30T16:09:03.661Z,24.07
2017-11-30T16:11:31.979Z,23.83
2017-11-30T16:14:00.310Z,23.60
2017-11-30T16:16:29.361Z,22.77
2017-11-30T16:18:57.690Z,26.03
2017-11-30T16:21:25.983Z,25.97
2017-11-30T16:23:55.836Z,24.00
2017-11-30T16:26:24.889Z,22.70
2017-11-30T16:28:53.204Z,23.10
2017-11-30T16:31:21.553Z,24.23
2017-11-30T16:33:49.822Z,24.80
2017-11-30T16:36:18.153Z,24.23
2017-11-30T16:38:46.512Z,23.67
2017-11-30T16:41:14.801Z,25.40
2017-11-30T16:43:43.082Z,24.27
2017-11-30T16:46:11.406Z,24.10
2017-11-30T16:48:39.706Z,24.20
2017-11-30T16:51:08.088Z,22.70
2017-11-30T16:53:37.922Z,25.13
2017-11-30T16:56:12.074Z,22.67
2017-11-30T16:58:41.174Z,24.43
2017-11-30T17:01:09.466Z,22.73
2017-11-30T17:03:37.806Z,21.63
2017-11-30T17:06:06.095Z,24.63
2017-11-30T17:08:34.383Z,24.50
2017-11-30T17:11:03.118Z,22.50
2017-11-30T17:13:31.414Z,24.27
2017-11-30T17:15:59.706Z,24.40
2017-11-30T17:18:28.095Z,25.13
2017-11-30T17:20:56.386Z,24.43
2017-11-30T17:23:24.670Z,22.20
2017-11-30T17:25:53.022Z,26.30
2017-11-30T17:28:21.323Z,24.30
2017-11-30T17:30:49.674Z,23.83
2017-11-30T17:33:18.739Z,23.77
2017-11-30T17:35:47.029Z,22.07
2017-11-30T17:38:17.251Z,26.57
2017-11-30T17:40:45.664Z,26.23
2017-11-30T17:43:13.955Z,27.30
2017-11-30T17:45:42.282Z,25.47
2017-11-30T17:48:10.826Z,23.63
2017-11-30T17:50:40.215Z,21.60
2017-11-30T17:53:08.512Z,22.03
2017-11-30T17:55:37.614Z,19.00
2017-11-30T17:58:05.924Z,20.77
2017-11-30T18:00:34.250Z,21.50
2017-11-30T18:03:03.306Z,20.43
2017-11-30T18:05:31.647Z,20.47
2017-11-30T18:08:00.754Z,19.63
2017-11-30T18:10:29.843Z,21.47
2017-11-30T18:12:58.201Z,20.40
2017-11-30T18:15:26.491Z,19.30
2017-11-30T18:17:54.792Z,20.03
2017-11-30T18:20:23.307Z,17.40
2017-11-30T18:22:52.537Z,19.60
2017-11-30T18:25:21.591Z,18.77
2017-11-30T18:27:49.922Z,21.17
2017-11-30T18:30:18.215Z,20.47
2017-11-30T18:32:47.430Z,19.30
2017-11-30T18:35:17.859Z,20.20
2017-11-30T18:37:46.163Z,18.10
2017-11-30T18:40:15.214Z,19.03
2017-11-30T18:42:43.534Z,20.03
2017-11-30T18:45:11.870Z,20.37
2017-11-30T18:47:41.559Z,19.00
2017-11-30T18:50:09.842Z,19.03
2017-11-30T18:52:38.140Z,18.60
2017-11-30T18:55:06.475Z,19.70
2017-11-30T18:57:34.851Z,18.87
2017-11-30T19:00:03.197Z,19.77
2017-11-30T19:02:31.497Z,18.37
2017-11-30T19:05:01.415Z,16.57
2017-11-30T19:07:29.856Z,17.13
2017-11-30T19:09:58.906Z,16.60
2017-11-30T19:12:27.294Z,16.70
2017-11-30T19:14:55.600Z,16.00
2017-11-30T19:17:23.900Z,19.30
2017-11-30T19:19:52.257Z,17.33
2017-11-30T19:22:20.625Z,16.30
2017-11-30T19:24:48.919Z,15.83
2017-11-30T19:27:17.263Z,16.77
2017-11-30T19:29:45.564Z,14.33
2017-11-30T19:32:13.943Z,18.33
2017-11-30T19:34:43.672Z,17.93
2017-11-30T19:37:12.742Z,14.60
2017-11-30T19:39:41.066Z,17.73
2017-11-30T19:42:10.138Z,15.40
2017-11-30T19:44:38.480Z,18.10
2017-11-30T19:47:06.837Z,17.13
2017-11-30T19:49:35.189Z,17.23
2017-11-30T19:52:03.537Z,16.50
2017-11-30T19:54:32.746Z,19.70
2017-11-30T19:57:01.108Z,19.40
2017-11-30T19:59:29.436Z,16.57
2017-11-30T20:01:58.499Z,17.90
2017-11-30T20:04:26.864Z,16.30
2017-11-30T20:06:55.223Z,18.13
2017-11-30T20:09:24.326Z,14.77
2017-11-30T20:11:52.634Z,16.67
2017-11-30T20:14:20.991Z,16.40
2017-11-30T20:16:49.284Z,16.60
2017-11-30T20:19:17.623Z,14.13
2017-11-30T20:21:45.976Z,15.40
2017-11-30T20:24:14.320Z,17.10
2017-11-30T20:26:42.759Z,14.05
2017-11-30T20:29:11.145Z,12.60
2017-11-30T20:31:39.530Z,12.83
2017-11-30T20:34:07.851Z,13.27
2017-11-30T20:36:36.908Z,12.97
2017-11-30T20:39:05.226Z,13.30
2017-11-30T20:41:34.539Z,14.67
2017-11-30T20:44:02.950Z,14.63
2017-11-30T20:46:32.010Z,14.63
2017-11-30T20:49:00.352Z,14.53
2017-11-30T20:51:28.647Z,14.50
2017-11-30T20:53:57.016Z,11.77
2017-11-30T20:56:26.115Z,14.27
2017-11-30T20:58:54.512Z,11.40
2017-11-30T21:01:23.572Z,13.80
2017-11-30T21:03:52.668Z,13.90
2017-11-30T21:06:20.955Z,14.60
2017-11-30T21:08:49.290Z,15.00
2017-11-30T21:11:17.604Z,13.67
2017-11-30T21:13:46.694Z,13.50
2017-11-30T21:16:15.032Z,13.30
2017-11-30T21:18:43.403Z,17.90
2017-11-30T21:21:12.531Z,14.13
2017-11-30T21:23:44.180Z,14.80
2017-11-30T21:26:12.543Z,17.58
2017-11-30T21:28:41.026Z,15.57
2017-11-30T21:31:10.102Z,13.60
2017-11-30T21:33:38.399Z,14.02
2017-11-30T21:36:06.728Z,14.50
2017-11-30T21:38:35.822Z,16.77
2017-11-30T21:41:04.156Z,16.42
2017-11-30T21:43:32.522Z,17.95
2017-11-30T21:46:01.616Z,14.67
2017-11-30T21:48:29.978Z,16.10
2017-11-30T21:50:58.276Z,17.00
2017-11-30T21:53:26.574Z,13.97
2017-11-30T21:55:54.979Z,16.90
2017-11-30T21:58:23.331Z,15.80
2017-11-30T22:00:51.675Z,18.05
2017-11-30T22:03:20.771Z,15.43
2017-11-30T22:05:49.878Z,14.68
2017-11-30T22:08:18.983Z,16.20
2017-11-30T22:10:47.470Z,17.08
2017-11-30T22:13:17.270Z,16.07
2017-11-30T22:15:45.562Z,15.07
2017-11-30T22:18:13.902Z,16.70
2017-11-30T22:20:43.075Z,16.23
2017-11-30T22:23:11.363Z,14.80
2017-11-30T22:25:39.703Z,17.00
2017-11-30T22:28:07.994Z,15.03
2017-11-30T22:30:36.343Z,15.98
2017-11-30T22:33:04.639Z,15.67
2017-11-30T22:35:34.434Z,14.97
2017-11-30T22:38:02.778Z,16.12
2017-11-30T22:40:31.115Z,17.55
2017-11-30T22:43:01.276Z,16.52
2017-11-30T22:45:29.764Z,16.57
2017-11-30T22:47:58.833Z,16.27
2017-11-30T22:50:27.130Z,15.30
2017-11-30T22:52:55.505Z,17.80
2017-11-30T22:55:23.802Z,14.97
2017-11-30T22:57:52.107Z,16.43
2017-11-30T23:00:20.626Z,14.93
2017-11-30T23:02:48.931Z,13.98
2017-11-30T23:05:18.012Z,13.13
2017-11-30T23:07:46.414Z,15.80
2017-11-30T23:10:14.715Z,14.80
2017-11-30T23:12:43.773Z,13.07
2017-11-30T23:15:12.114Z,13.75
2017-11-30T23:17:41.207Z,11.53
2017-11-30T23:20:09.595Z,13.80
2017-11-30T23:22:37.890Z,13.52
2017-11-30T23:25:06.384Z,14.95
2017-11-30T23:27:34.678Z,15.63
2017-11-30T23:30:02.962Z,15.47
2017-11-30T23:32:31.302Z,14.30
2017-11-30T23:35:00.043Z,12.70
2017-11-30T23:37:28.342Z,12.68
2017-11-30T23:39:57.408Z,12.83
2017-11-30T23:42:25.735Z,13.57
2017-11-30T23:44:54.071Z,15.40
2017-11-30T23:47:22.414Z,14.25
2017-11-30T23:49:50.766Z,14.47
2017-11-30T23:52:19.062Z,13.45
2017-11-30T23:54:48.094Z,12.80
2017-11-30T23:57:16.455Z,13.80
2017-11-30T23:59:44.782Z,13.20
